createdAt,value
2023-04-30T00:02:03.353Z,11.80
2023-04-30T00:07:56.769Z,9.60
2023-04-30T00:13:50.295Z,13.10
2023-04-30T00:19:45.345Z,13.20
2023-04-30T00:25:38.480Z,14.10
2023-04-30T00:31:31.930Z,13.80
2023-04-30T00:37:26.920Z,15.80
2023-04-30T00:43:20.521Z,18.90
2023-04-30T00:49:13.494Z,17.10
2023-04-30T00:55:08.907Z,15.30
2023-04-30T01:01:03.106Z,14.30
2023-04-30T01:06:57.233Z,19.90
2023-04-30T01:12:59.842Z,18.70
2023-04-30T01:18:59.277Z,18.50
2023-04-30T01:25:23.032Z,23.30
2023-04-30T01:31:21.147Z,27.00
2023-04-30T01:37:23.905Z,27.60
2023-04-30T01:43:26.174Z,28.50
2023-04-30T01:49:28.577Z,26.70
2023-04-30T01:55:25.262Z,30.80
2023-04-30T02:01:29.374Z,36.90
2023-04-30T02:07:40.422Z,39.10
2023-04-30T02:13:34.411Z,39.10
2023-04-30T02:19:27.536Z,41.40
2023-04-30T02:25:21.960Z,41.40
2023-04-30T02:31:14.996Z,32.30
2023-04-30T02:37:08.064Z,36.10
2023-04-30T02:43:02.941Z,32.70
2023-04-30T02:48:55.927Z,33.60
2023-04-30T02:54:49.095Z,40.60
2023-04-30T03:00:43.908Z,33.50
2023-04-30T03:06:36.950Z,34.90
2023-04-30T03:12:30.375Z,43.70
2023-04-30T03:24:26.871Z,39.40
2023-04-30T03:30:20.353Z,29.50
2023-04-30T03:36:13.833Z,25.00
2023-04-30T03:42:08.222Z,29.10
2023-04-30T03:48:01.266Z,26.20
2023-04-30T03:53:54.740Z,27.60
2023-04-30T03:59:50.239Z,25.30
2023-04-30T04:05:44.384Z,25.30
2023-04-30T04:11:38.550Z,29.10
2023-04-30T04:17:33.343Z,22.20
2023-04-30T04:23:26.414Z,24.40
2023-04-30T04:29:19.779Z,26.00
2023-04-30T04:35:14.455Z,20.60
2023-04-30T04:41:08.097Z,20.00
2023-04-30T04:47:03.330Z,23.60
2023-04-30T04:52:59.072Z,28.60
2023-04-30T04:58:52.536Z,28.70
2023-04-30T05:04:46.910Z,33.40
2023-04-30T05:10:42.065Z,32.10
2023-04-30T05:16:35.531Z,39.50
2023-04-30T05:22:28.970Z,46.50
2023-04-30T05:28:23.712Z,36.80
2023-04-30T05:34:16.761Z,36.30
2023-04-30T05:40:11.195Z,25.80
2023-04-30T05:46:06.200Z,20.90
2023-04-30T05:51:59.371Z,18.20
2023-04-30T05:57:52.800Z,18.20
2023-04-30T06:03:47.218Z,9.80
2023-04-30T06:09:40.371Z,6.00
2023-04-30T06:15:33.567Z,5.20
2023-04-30T06:21:27.861Z,6.20
2023-04-30T06:27:21.505Z,6.10
2023-04-30T06:33:14.936Z,1.00
2023-04-30T06:39:09.315Z,1.00
2023-04-30T06:45:02.979Z,1.00
2023-04-30T06:50:55.939Z,1.00
2023-04-30T06:56:50.471Z,1.00
2023-04-30T07:02:43.896Z,1.00
2023-04-30T07:08:36.875Z,1.00
2023-04-30T07:14:31.675Z,1.00
2023-04-30T07:20:24.900Z,1.00
2023-04-30T07:26:18.286Z,1.00
2023-04-30T07:32:12.700Z,1.00
2023-04-30T07:38:05.845Z,1.00
2023-04-30T07:43:59.730Z,1.00
2023-04-30T07:49:54.601Z,1.00
2023-04-30T07:55:47.849Z,1.00
2023-04-30T08:01:41.236Z,1.00
2023-04-30T08:07:35.674Z,1.00
2023-04-30T08:13:29.059Z,1.00
2023-04-30T08:19:22.012Z,1.00
2023-04-30T08:25:16.489Z,1.00
2023-04-30T08:31:09.735Z,1.00
2023-04-30T08:37:03.214Z,1.00
2023-04-30T08:43:05.825Z,1.00
2023-04-30T08:48:59.614Z,1.00
2023-04-30T08:54:54.750Z,1.00
2023-04-30T09:00:49.546Z,1.00
2023-04-30T09:06:43.041Z,1.00
2023-04-30T09:12:37.064Z,1.00
2023-04-30T09:18:31.777Z,1.00
2023-04-30T09:24:26.092Z,1.00
2023-04-30T09:30:32.701Z,1.00
2023-04-30T09:36:28.189Z,1.00
2023-04-30T09:42:21.318Z,1.00
2023-04-30T09:48:18.067Z,1.00
2023-04-30T09:54:14.108Z,1.00
2023-04-30T10:00:10.268Z,1.00
2023-04-30T10:06:05.589Z,1.00
2023-04-30T10:12:02.315Z,1.00
2023-04-30T10:18:02.037Z,1.00
2023-04-30T10:23:56.825Z,1.00
2023-04-30T10:29:52.566Z,1.00
2023-04-30T10:35:51.174Z,1.00
2023-04-30T10:41:47.274Z,1.00
2023-04-30T10:47:43.619Z,1.00
2023-04-30T10:53:40.623Z,1.00
2023-04-30T10:59:33.603Z,1.00
2023-04-30T11:05:38.886Z,1.00
2023-04-30T11:11:35.275Z,1.00
2023-04-30T11:17:30.189Z,1.00
2023-04-30T11:23:38.499Z,1.00
2023-04-30T11:29:34.876Z,1.00
2023-04-30T11:35:30.338Z,1.00
2023-04-30T11:41:27.735Z,1.00
2023-04-30T11:47:21.132Z,1.00
2023-04-30T11:53:14.553Z,1.00
2023-04-30T11:59:13.037Z,1.00
2023-04-30T12:05:07.132Z,1.00
2023-04-30T12:11:00.166Z,1.00
2023-04-30T12:16:54.657Z,1.00
2023-04-30T12:22:48.349Z,1.00
2023-04-30T12:28:41.414Z,1.00
2023-04-30T12:34:39.249Z,1.00
2023-04-30T12:40:33.378Z,1.00
2023-04-30T12:46:29.466Z,1.00
2023-04-30T12:52:27.092Z,1.00
2023-04-30T12:58:20.488Z,1.00
2023-04-30T13:04:13.553Z,1.00
2023-04-30T13:10:09.113Z,1.00
2023-04-30T13:16:02.321Z,1.00
2023-04-30T13:21:55.328Z,1.00
2023-04-30T13:27:49.649Z,1.00
2023-04-30T13:33:43.112Z,1.00
2023-04-30T13:39:36.084Z,1.00
2023-04-30T13:45:30.633Z,1.00
2023-04-30T13:51:23.740Z,1.00
2023-04-30T13:57:16.716Z,1.00
2023-04-30T14:03:11.187Z,1.00
2023-04-30T14:09:04.217Z,1.00
2023-04-30T14:14:58.045Z,1.00
2023-04-30T14:20:52.441Z,1.00
2023-04-30T14:26:45.810Z,1.00
2023-04-30T14:32:39.337Z,1.00
2023-04-30T14:38:34.182Z,1.00
2023-04-30T14:44:27.689Z,1.00
2023-04-30T14:50:20.669Z,1.00
2023-04-30T14:56:15.916Z,1.00
2023-04-30T15:02:09.664Z,1.00
2023-04-30T15:08:02.689Z,1.00
2023-04-30T15:13:57.467Z,1.00
2023-04-30T15:19:50.988Z,1.00
2023-04-30T15:25:44.584Z,1.00
2023-04-30T15:31:39.098Z,1.00
2023-04-30T15:37:32.534Z,1.00
2023-04-30T15:43:25.954Z,1.00
2023-04-30T15:49:21.159Z,1.00
2023-04-30T15:55:14.653Z,1.00
2023-04-30T16:01:07.702Z,1.00
2023-04-30T16:07:03.263Z,1.00
2023-04-30T16:12:56.821Z,1.00
2023-04-30T16:18:51.270Z,1.00
2023-04-30T16:24:46.081Z,1.00
2023-04-30T16:30:39.593Z,1.00
2023-04-30T16:36:32.727Z,1.00
2023-04-30T16:42:27.937Z,1.00
2023-04-30T16:48:20.946Z,1.00
2023-04-30T16:54:14.425Z,1.00
2023-04-30T17:00:11.450Z,1.00
2023-04-30T17:06:05.152Z,1.00
2023-04-30T17:11:58.718Z,1.00
2023-04-30T17:17:53.727Z,1.00
2023-04-30T17:23:47.285Z,1.00
2023-04-30T17:29:40.350Z,1.00
2023-04-30T17:35:35.360Z,1.00
2023-04-30T17:41:28.345Z,1.00
2023-04-30T17:47:23.308Z,1.00
2023-04-30T17:53:17.715Z,1.00
2023-04-30T17:59:10.681Z,1.00
2023-04-30T18:05:04.157Z,1.00
2023-04-30T18:10:58.653Z,1.00
2023-04-30T18:16:52.167Z,1.00
2023-04-30T18:22:45.689Z,1.00
2023-04-30T18:28:40.044Z,1.00
2023-04-30T18:34:33.503Z,1.00
2023-04-30T18:40:26.659Z,1.00
2023-04-30T18:46:22.931Z,1.00
2023-04-30T18:52:16.394Z,1.00
2023-04-30T18:58:09.854Z,1.00
2023-04-30T19:04:04.322Z,1.00
2023-04-30T19:09:58.097Z,1.00
2023-04-30T19:15:52.928Z,1.00
2023-04-30T19:21:47.302Z,1.00
2023-04-30T19:27:40.252Z,1.00
2023-04-30T19:33:38.056Z,1.00
2023-04-30T19:39:34.308Z,1.00
2023-04-30T19:45:27.357Z,1.00
2023-04-30T19:51:20.768Z,1.00
2023-04-30T19:57:15.670Z,1.00
2023-04-30T20:03:09.251Z,1.00
2023-04-30T20:09:02.987Z,1.00
2023-04-30T20:14:57.762Z,1.00
2023-04-30T20:20:50.781Z,1.00
2023-04-30T20:26:43.902Z,1.00
2023-04-30T20:32:39.395Z,1.00
2023-04-30T20:38:32.425Z,1.00
2023-04-30T20:44:27.114Z,1.00
2023-04-30T20:50:22.145Z,1.00
2023-04-30T20:56:15.098Z,1.00
2023-04-30T21:02:10.127Z,1.00
2023-04-30T21:08:05.219Z,1.00
2023-04-30T21:13:58.620Z,1.00
2023-04-30T21:19:52.044Z,1.00
2023-04-30T21:25:46.873Z,1.00
2023-04-30T21:31:40.274Z,1.00
2023-04-30T21:37:33.674Z,1.00
2023-04-30T21:43:28.461Z,1.00
2023-04-30T21:49:21.873Z,1.00
2023-04-30T21:55:15.318Z,1.00
2023-04-30T22:01:09.839Z,1.00
2023-04-30T22:07:03.235Z,1.00
2023-04-30T22:12:56.752Z,1.00
2023-04-30T22:18:51.968Z,1.00
2023-04-30T22:24:45.361Z,1.00
2023-04-30T22:30:39.773Z,1.00
2023-04-30T22:36:34.088Z,1.00
2023-04-30T22:42:27.600Z,1.00
2023-04-30T22:48:21.196Z,1.00
2023-04-30T22:54:15.957Z,1.00
2023-04-30T23:00:10.430Z,1.00
2023-04-30T23:06:03.832Z,1.00
2023-04-30T23:11:58.652Z,1.00
2023-04-30T23:17:52.143Z,1.00
2023-04-30T23:23:45.687Z,1.00
2023-04-30T23:29:40.466Z,1.00
2023-04-30T23:35:33.498Z,1.00
2023-04-30T23:41:27.337Z,1.00
2023-04-30T23:47:21.663Z,1.00
2023-04-30T23:53:17.158Z,1.00
2023-04-30T23:59:10.619Z,1.00
